Latest Weather Observations for Brisbane Airport

IDQ60901

Issued at 4:05 pm EST Monday 28 July 2014 (issued every 10 minutes, with the page automatically refreshed every 10 minutes)

About weather observations | Map of Brisbane area stations | Latest observations for Brisbane area | Other Formats
Station Details ID: 040842 Name: BRISBANE AERO Lat: -27.39 Lon: 153.13 Height: 4.51 m
Data from the previous 72 hours. | See also: Recent months at Brisbane Airport
Date/Time
EST
Tmp

°C
App
Tmp
°C
Dew
Point
°C
Rel
Hum
%
Delta-T

°C
Wind Press
QNH
hPa
Press
MSL
hPa
Rain
since
9 am
mm
Dir
 
Spd
km/h
Gust
km/h
Spd
kts
Gust
kts
28/04:00pm 19.5 15.8 10.2 55 5.0 NNE 20 28 11 15 1020.1 - 0.0
28/03:30pm 20.0 16.2 9.2 49 5.7 NNE 19 24 10 13 1020.2 - 0.0
28/03:00pm 20.2 16.4 9.0 48 5.9 NE 19 26 10 14 1020.2 1020.2 0.0
28/02:30pm 20.8 18.0 10.0 50 5.8 NE 15 20 8 11 1020.5 - 0.0
28/02:00pm 20.6 18.6 10.0 50 5.7 E 11 20 6 11 1020.7 - 0.0
28/01:30pm 19.9 17.1 10.0 53 5.3 ENE 15 20 8 11 1021.0 - 0.0
28/01:00pm 21.1 17.8 9.7 48 6.1 NNE 17 20 9 11 1021.2 - 0.0
28/12:30pm 21.2 18.2 9.1 46 6.4 NNE 15 19 8 10 1021.7 - 0.0
28/12:00pm 21.3 17.9 9.3 46 6.4 N 17 24 9 13 1022.3 1022.3 0.0
28/11:30am 21.1 18.6 9.7 48 6.1 N 13 20 7 11 1022.9 - 0.0
28/11:00am 20.0 18.5 9.2 49 5.7 W 7 13 4 7 1023.5 - 0.0
28/10:30am 18.8 16.9 9.0 53 5.1 SW 9 15 5 8 1024.1 - 0.0
28/10:00am 18.0 15.7 9.1 56 4.6 WSW 11 17 6 9 1024.4 - 0.0
28/09:30am 16.9 14.2 8.9 59 4.1 SSW 13 15 7 8 1024.4 - 0.0
28/09:00am 15.7 13.6 9.9 68 3.0 SSW 11 15 6 8 1024.3 1024.2 0.2
28/08:30am 14.1 12.4 10.0 76 2.1 W 9 11 5 6 1024.1 - 0.2
28/08:00am 12.5 10.7 9.5 82 1.5 WSW 9 11 5 6 1024.1 - 0.2
28/07:30am 10.9 8.1 8.7 86 1.1 SSW 13 15 7 8 1023.7 - 0.2
28/07:00am 10.0 7.0 7.9 87 1.0 SSW 13 15 7 8 1023.5 - 0.2
28/06:30am 9.7 6.7 7.8 88 0.9 SSW 13 15 7 8 1023.1 - 0.2
28/06:00am 9.6 6.3 7.9 89 0.8 SSW 15 19 8 10 1023.3 1023.3 0.2
28/05:30am 9.8 6.5 8.1 89 0.8 SSW 15 19 8 10 1023.2 - 0.2
28/05:00am 9.6 6.2 7.5 87 1.0 SSW 15 19 8 10 1023.0 - 0.2
28/04:30am 9.6 6.3 8.1 90 0.7 SSW 15 17 8 9 1022.9 - 0.2
28/04:00am 9.8 7.0 8.6 92 0.6 SSW 13 15 7 8 1022.8 - 0.2
28/03:30am 9.1 6.6 8.1 93 0.5 SW 11 15 6 8 1022.9 - 0.2
28/03:00am 10.0 8.1 9.0 93 0.5 SSW 9 11 5 6 1022.7 1022.7 0.2
28/02:30am 9.9 8.3 8.9 93 0.5 WSW 7 7 4 4 1022.7 - 0.2
28/02:00am 10.1 8.6 9.3 95 0.4 SW 7 9 4 5 1022.8 - 0.2
28/01:30am 10.6 9.2 9.6 93 0.5 SW 7 7 4 4 1023.1 - 0.2
28/01:00am 10.8 9.0 9.6 92 0.6 SW 9 9 5 5 1023.3 - 0.2
28/12:30am 11.1 9.0 9.7 91 0.7 SSW 11 11 6 6 1023.5 - 0.2
28/12:00am 10.5 9.0 9.3 92 0.6 SSW 7 9 4 5 1023.2 1023.2 0.2
 
Date/Time
EST
Tmp

°C
App
Tmp
°C
Dew
Point
°C
Rel
Hum
%
Delta-T

°C
Wind Press
QNH
hPa
Press
MSL
hPa
Rain
since
9 am
mm
Dir
 
Spd
km/h
Gust
km/h
Spd
kts
Gust
kts
27/11:30pm 11.8 10.5 10.0 89 0.9 S 7 9 4 5 1023.6 - 0.2
27/11:00pm 12.4 10.4 10.0 85 1.2 S 11 15 6 8 1023.7 - 0.2
27/10:30pm 12.9 11.7 10.4 85 1.3 WSW 7 9 4 5 1023.9 - 0.2
27/10:00pm 13.0 12.0 10.3 84 1.4 SSW 6 9 3 5 1023.7 - 0.2
27/09:30pm 13.7 12.6 10.6 81 1.6 WSW 7 9 4 5 1023.8 - 0.2
27/09:00pm 14.0 13.5 10.7 80 1.7 W 4 9 2 5 1023.8 1023.7 0.2
27/08:30pm 14.8 15.1 11.0 78 2.0 CALM 0 0 0 0 1023.7 - 0.2
27/08:00pm 16.2 15.4 11.6 74 2.5 E 7 11 4 6 1023.2 - 0.2
27/07:30pm 16.7 15.9 11.1 69 3.0 E 6 9 3 5 1023.0 - 0.2
27/07:00pm 17.0 15.7 11.2 68 3.1 E 9 13 5 7 1022.8 - 0.2
27/06:30pm 17.2 15.9 11.3 68 3.2 E 9 17 5 9 1022.6 - 0.2
27/06:00pm 17.1 15.6 12.0 72 2.8 E 11 15 6 8 1022.3 1022.3 0.2
27/05:30pm 17.3 15.8 12.0 71 2.9 E 11 17 6 9 1022.0 - 0.2
27/05:00pm 18.7 16.4 10.3 58 4.5 ENE 13 19 7 10 1021.6 - 0.2
27/04:30pm 19.5 16.9 9.5 52 5.3 NE 13 19 7 10 1021.3 - 0.2
27/04:00pm 20.1 16.9 9.8 51 5.5 ENE 17 20 9 11 1021.1 - 0.2
27/03:30pm 20.8 17.8 9.3 47 6.1 ENE 15 22 8 12 1020.8 - 0.2
27/03:00pm 21.6 19.3 7.4 40 7.3 ESE 9 15 5 8 1020.7 1020.7 0.2
27/02:30pm 21.3 17.2 6.4 38 7.5 SE 17 26 9 14 1020.7 - 0.2
27/02:00pm 22.4 16.8 -0.2 22 10.1 SSW 19 26 10 14 1020.7 - 0.2
27/01:30pm 22.8 18.3 -0.1 22 10.3 S 13 19 7 10 1020.9 - 0.2
27/01:00pm 22.6 19.2 3.8 29 9.1 S 11 24 6 13 1021.1 - 0.2
27/12:30pm 21.8 18.7 9.0 44 6.8 SSW 15 24 8 13 1021.5 - 0.2
27/12:00pm 21.1 17.0 8.5 44 6.6 SSW 20 28 11 15 1022.0 1022.0 0.0
27/11:30am 21.3 17.0 9.2 46 6.4 SSW 22 37 12 20 1022.8 - 0.0
27/11:00am 21.0 16.8 9.6 48 6.1 SSW 22 30 12 16 1023.3 - 0.0
27/10:30am 20.2 15.7 8.7 47 6.0 SSW 22 32 12 17 1023.6 - 0.0
27/10:00am 19.9 18.4 12.0 60 4.4 S 11 19 6 10 1023.8 - 0.0
27/09:30am 18.7 17.9 14.0 74 2.7 SW 11 15 6 8 1023.9 - 0.0
27/09:00am 17.8 16.4 13.5 76 2.4 SW 13 17 7 9 1023.9 1023.8 4.2
27/08:30am 16.8 16.0 14.0 83 1.6 SSW 11 15 6 8 1023.6 - 4.2
27/08:00am 15.3 14.5 14.1 92 0.7 SW 11 13 6 7 1023.6 - 4.2
27/07:30am 13.6 13.1 12.7 94 0.5 WSW 7 11 4 6 1023.2 - 4.2
27/07:26am 13.3 12.8 12.6 95 0.4 WSW 7 9 4 5 1023.2 - 4.2
27/07:00am 11.5 11.9 11.3 99 0.1 CALM 0 6 0 3 1023.2 - 4.2
27/06:30am 11.8 10.5 11.4 97 0.2 W 9 13 5 7 1023.0 - 4.2
27/06:00am 11.9 12.1 11.9 100 0.0 S 2 7 1 4 1022.8 1022.8 4.2
27/05:30am 11.5 11.9 11.3 99 0.1 CALM 0 - 0 - 1022.4 - 4.2
27/05:00am 12.7 12.1 12.3 97 0.2 SSE 7 9 4 5 1022.2 - 4.2
27/04:30am 12.7 13.5 12.7 100 0.0 CALM 0 - 0 - 1022.1 - 4.2
27/04:00am 12.3 13.0 12.3 100 0.0 CALM 0 - 0 - 1022.0 - 4.2
27/03:30am 12.5 13.3 12.5 100 0.0 CALM 0 - 0 - 1022.3 - 4.2
27/03:00am 13.4 14.5 13.4 100 0.0 CALM 0 - 0 - 1022.3 1022.3 4.2
27/02:30am 13.8 14.9 13.4 97 0.2 CALM 0 - 0 - 1022.5 - 4.2
27/02:00am 13.5 14.5 13.3 99 0.1 CALM 0 - 0 - 1022.6 - 4.2
27/01:30am 13.6 14.7 13.6 100 0.0 CALM 0 - 0 - 1022.8 - 4.2
27/01:00am 14.7 16.0 14.0 96 0.4 CALM 0 - 0 - 1022.9 - 4.2
27/12:30am 15.4 16.2 14.7 96 0.4 SSW 4 9 2 5 1023.2 - 4.2
27/12:00am 15.7 15.5 14.8 94 0.5 SSW 9 11 5 6 1023.2 1023.2 4.2
 
Date/Time
EST
Tmp

°C
App
Tmp
°C
Dew
Point
°C
Rel
Hum
%
Delta-T

°C
Wind Press
QNH
hPa
Press
MSL
hPa
Rain
since
9 am
mm
Dir
 
Spd
km/h
Gust
km/h
Spd
kts
Gust
kts
26/11:30pm 15.8 16.1 15.1 96 0.4 SSW 7 13 4 7 1023.5 - 4.0
26/11:00pm 15.6 16.7 14.7 94 0.5 ENE 2 11 1 6 1023.7 - 4.0
26/10:30pm 16.1 16.5 15.4 96 0.4 W 7 11 4 6 1023.9 - 4.0
26/10:00pm 16.2 16.3 15.5 96 0.4 W 9 13 5 7 1024.1 - 4.0
26/09:30pm 16.3 17.5 15.8 97 0.3 W 4 20 2 11 1024.2 - 4.0
26/09:00pm 16.7 18.2 15.8 94 0.5 W 2 7 1 4 1024.4 1024.3 4.0
26/08:30pm 17.0 17.6 15.8 93 0.7 NW 7 9 4 5 1024.7 - 4.0
26/08:00pm 16.5 18.3 15.6 94 0.5 CALM 0 0 0 0 1024.6 - 4.0
26/07:30pm 16.7 17.3 15.7 94 0.6 SSW 7 9 4 5 1024.7 - 4.0
26/07:00pm 16.7 16.9 15.7 94 0.6 NE 9 11 5 6 1024.6 - 4.0
26/06:30pm 17.1 17.2 15.6 91 0.9 ENE 9 13 5 7 1024.0 - 4.0
26/06:00pm 17.2 17.7 15.5 90 1.0 SE 7 9 4 5 1024.0 1023.9 4.0
26/05:54pm 17.7 15.8 15.1 85 1.5 SW 19 22 10 12 1024.0 - 3.6
26/05:48pm 18.3 16.1 14.3 77 2.3 SW 19 20 10 11 1024.4 - 0.2
26/05:42pm 18.4 17.9 14.8 79 2.1 W 11 22 6 12 1024.0 - 0.0
26/05:30pm 17.9 17.4 14.8 82 1.8 NNE 11 15 6 8 1023.8 - 0.0
26/05:00pm 18.3 16.6 14.7 79 2.1 N 17 20 9 11 1023.2 - 0.0
26/04:30pm 18.7 17.7 14.5 76 2.4 NNE 13 15 7 8 1023.2 - 0.0
26/04:00pm 19.3 17.9 14.5 74 2.8 N 15 17 8 9 1023.3 - 0.0
26/03:30pm 19.8 18.3 14.3 70 3.2 N 15 17 8 9 1023.5 - 0.0
26/03:00pm 19.5 18.0 14.3 72 3.0 NNE 15 19 8 10 1023.2 1023.2 0.0
26/02:30pm 20.2 18.7 14.3 69 3.4 NNE 15 17 8 9 1023.6 - 0.0
26/02:00pm 20.6 19.7 14.8 69 3.4 NE 13 17 7 9 1023.5 - 0.0
26/01:30pm 20.6 19.6 14.6 68 3.5 NNE 13 17 7 9 1023.9 - 0.0
26/01:00pm 20.8 20.5 14.4 67 3.7 N 9 11 5 6 1024.2 - 0.0
26/12:30pm 21.4 21.0 14.2 63 4.2 N 9 13 5 7 1024.7 - 0.0
26/12:00pm 20.3 19.9 14.0 67 3.6 WNW 9 13 5 7 1025.3 1025.2 0.0
26/11:30am 20.6 20.5 14.0 66 3.8 NNE 7 15 4 8 1025.6 - 0.0
26/11:00am 19.3 19.2 13.9 71 3.1 SW 7 11 4 6 1026.4 - 0.0
26/10:30am 18.6 17.8 13.9 74 2.7 SSW 11 15 6 8 1026.8 - 0.0
26/10:00am 18.0 17.2 14.1 78 2.2 SSW 11 15 6 8 1027.1 - 0.0
26/09:30am 17.2 16.6 14.6 85 1.5 S 11 15 6 8 1027.4 - 0.0
26/09:00am 16.3 16.1 14.7 90 0.9 S 9 11 5 6 1027.6 1027.5 0.0
26/08:47am 15.8 15.5 14.4 91 0.8 SSW 9 13 5 7 1027.5 - 0.0
26/08:30am 15.4 14.7 14.3 93 0.6 SSW 11 15 6 8 1027.5 - 0.0
26/08:24am 15.3 14.9 14.2 93 0.6 SSW 9 15 5 8 1027.4 - 0.0
26/08:00am 14.4 13.8 13.5 94 0.5 SSW 9 11 5 6 1027.0 - 0.0
26/07:30am 13.7 14.0 13.3 97 0.2 S 4 7 2 4 1026.8 - 0.0
26/07:00am 13.6 13.3 13.2 97 0.2 S 7 9 4 5 1026.8 - 0.0
26/06:30am 13.2 12.9 12.8 97 0.2 S 6 9 3 5 1026.7 - 0.0
26/06:00am 13.4 13.1 12.8 96 0.3 S 6 7 3 4 1026.4 1026.3 0.0
26/05:30am 13.3 13.5 12.9 97 0.2 SSW 4 7 2 4 1026.1 - 0.0
26/05:00am 13.3 13.0 12.7 96 0.3 S 6 9 3 5 1025.8 - 0.0
26/04:30am 12.7 12.1 12.3 97 0.2 SSW 7 9 4 5 1025.9 - 0.0
26/04:00am 12.5 12.4 12.1 97 0.2 SW 4 6 2 3 1025.6 - 0.0
26/03:30am 12.4 13.0 12.0 97 0.2 CALM 0 0 0 0 1025.5 - 0.0
26/03:00am 12.3 11.8 11.9 97 0.2 SSW 6 7 3 4 1025.7 1025.6 0.0
26/02:30am 11.6 12.0 11.2 97 0.2 CALM 0 - 0 - 1025.8 - 0.0
26/02:00am 12.8 13.6 12.4 97 0.2 CALM 0 - 0 - 1026.1 - 0.0
26/01:30am 13.0 13.7 12.3 95 0.4 CALM 0 - 0 - 1026.1 - 0.0
26/12:59am 13.4 14.4 13.2 99 0.1 CALM 0 - 0 - 1026.2 - 0.0
26/12:30am 13.5 14.4 12.9 96 0.3 CALM 0 - 0 - 1026.4 - 0.0
26/12:00am 14.6 15.5 14.1 97 0.3 WNW 2 7 1 4 1026.6 1026.5 0.0
 
Date/Time
EST
Tmp

°C
App
Tmp
°C
Dew
Point
°C
Rel
Hum
%
Delta-T

°C
Wind Press
QNH
hPa
Press
MSL
hPa
Rain
since
9 am
mm
Dir
 
Spd
km/h
Gust
km/h
Spd
kts
Gust
kts
25/11:30pm 14.7 15.2 14.0 96 0.4 SW 4 9 2 5 1026.6 - 0.0
25/11:00pm 14.6 15.9 14.2 97 0.2 CALM 0 - 0 - 1026.8 - 0.0
25/10:30pm 14.9 16.2 14.2 96 0.4 CALM 0 0 0 0 1026.9 - 0.0
25/10:00pm 15.6 17.0 14.5 93 0.6 CALM 0 0 0 0 1027.0 - 0.0
25/09:30pm 15.6 16.3 14.5 93 0.6 N 4 19 2 10 1027.1 - 0.0
25/09:00pm 16.6 18.0 15.4 93 0.7 NNE 2 11 1 6 1027.1 1027.0 0.0
25/08:30pm 16.6 18.2 15.0 90 0.9 CALM 0 0 0 0 1027.0 - 0.0
25/08:00pm 16.4 18.1 15.2 93 0.7 CALM 0 0 0 0 1026.6 - 0.0
25/07:30pm 16.4 17.7 15.2 93 0.7 N 2 6 1 3 1026.2 - 0.0
25/07:00pm 16.0 16.3 14.6 91 0.8 NNE 6 7 3 4 1026.0 - 0.0
25/06:30pm 16.1 16.1 14.3 89 1.0 NNE 7 9 4 5 1025.5 - 0.0
25/06:00pm 16.3 15.9 14.2 87 1.2 NE 9 11 5 6 1025.2 1025.1 0.0
25/05:30pm 17.2 16.5 14.4 83 1.6 NE 11 13 6 7 1024.8 - 0.0
25/05:00pm 18.7 17.3 14.5 76 2.4 NE 15 19 8 10 1024.5 - 0.0
25/04:30pm 19.7 18.3 14.5 72 3.0 NE 15 19 8 10 1024.2 - 0.0

Latest Capital City Observations: Canberra | Sydney | Melbourne | Brisbane | Adelaide | Perth | Hobart | Darwin

Other Formats:

Comma delimited format used in spreadsheet applications
http://www.bom.gov.au/fwo/IDQ60901/IDQ60901.94578.axf

JavaScript Object Notation format (JSON) in row-major order
http://www.bom.gov.au/fwo/IDQ60901/IDQ60901.94578.json